Time;durP1;ratioP1;P1;durP2;ratioP2;P2;SDS_P1;SDS_P2;PMS_P1;PMS_P2;Temp;Humidity;BMP_temperature;BMP_pressure;BME280_temperature;BME280_humidity;BME280_pressure;Samples;Min_cycle;Max_cycle;Signal;HPM_P1;HPM_P2
2024/03/17 00:02:23;;;;;;;22.65;12.65;;;6.00;99.90;;;;;;5088746;28;20028;-74
2024/03/17 00:04:49;;;;;;;20.98;11.77;;;6.00;99.90;;;;;;5093246;28;20038;-74
2024/03/17 00:07:15;;;;;;;22.98;12.73;;;6.10;99.90;;;;;;5027911;28;20287;-74
2024/03/17 00:09:41;;;;;;;19.40;11.73;;;6.10;99.90;;;;;;5075696;28;20036;-74
2024/03/17 00:12:08;;;;;;;20.77;12.05;;;6.10;99.90;;;;;;5066506;28;20316;-74
2024/03/17 00:14:35;;;;;;;21.15;12.38;;;6.10;99.90;;;;;;5082525;28;20021;-74
2024/03/17 00:17:01;;;;;;;19.80;11.60;;;6.10;99.90;;;;;;5073331;28;20031;-73
2024/03/17 00:19:27;;;;;;;20.40;12.30;;;6.20;99.90;;;;;;5084675;28;20024;-75
2024/03/17 00:21:53;;;;;;;16.88;11.60;;;6.20;99.90;;;;;;5084578;28;20475;-74
2024/03/17 00:24:19;;;;;;;18.83;11.23;;;6.20;99.90;;;;;;5086616;28;20103;-74
2024/03/17 00:26:47;;;;;;;22.42;11.10;;;6.20;99.90;;;;;;5072037;28;20024;-74
2024/03/17 00:29:14;;;;;;;17.50;12.00;;;6.20;99.90;;;;;;5074979;28;20119;-74
2024/03/17 00:31:40;;;;;;;15.25;10.73;;;6.20;99.90;;;;;;5049925;28;20461;-74
2024/03/17 00:34:06;;;;;;;16.00;10.48;;;6.10;99.90;;;;;;5024721;28;20099;-75
2024/03/17 00:36:32;;;;;;;15.65;9.98;;;6.10;99.90;;;;;;5034472;28;20067;-74
2024/03/17 00:39:00;;;;;;;16.92;10.52;;;6.10;99.90;;;;;;5044162;28;20412;-74
2024/03/17 00:41:25;;;;;;;14.68;9.82;;;6.00;99.90;;;;;;5018544;28;20142;-74
2024/03/17 00:43:52;;;;;;;14.93;10.30;;;5.90;99.90;;;;;;5033486;28;20120;-74
2024/03/17 00:46:21;;;;;;;16.58;10.90;;;5.90;99.90;;;;;;5047233;28;20025;-73
2024/03/17 00:48:49;;;;;;;23.03;11.53;;;5.80;99.90;;;;;;5046502;28;20122;-74
2024/03/17 00:51:15;;;;;;;17.17;10.98;;;5.80;99.90;;;;;;5056436;28;20044;-75
2024/03/17 00:53:42;;;;;;;15.85;10.63;;;5.90;99.90;;;;;;5060414;28;20250;-73
2024/03/17 00:56:11;;;;;;;20.23;11.45;;;5.90;99.90;;;;;;5058589;28;20227;-73
2024/03/17 00:58:38;;;;;;;20.05;12.40;;;5.90;99.90;;;;;;5076490;28;20048;-73
2024/03/17 01:01:04;;;;;;;20.13;12.05;;;5.90;99.90;;;;;;5090013;28;20044;-74
2024/03/17 01:03:31;;;;;;;18.48;11.70;;;5.90;99.90;;;;;;5060697;28;20093;-74
2024/03/17 01:05:58;;;;;;;21.55;12.57;;;5.90;99.90;;;;;;5073351;28;20082;-74
2024/03/17 01:08:23;;;;;;;23.17;14.35;;;5.90;99.90;;;;;;5057843;28;20036;-74
2024/03/17 01:10:52;;;;;;;17.17;11.90;;;5.90;99.90;;;;;;5071492;28;20032;-74
2024/03/17 01:13:19;;;;;;;17.98;11.77;;;5.80;99.90;;;;;;5073353;28;20044;-74
2024/03/17 01:15:45;;;;;;;19.67;11.85;;;5.70;99.90;;;;;;5070131;28;20024;-74
2024/03/17 01:18:11;;;;;;;19.17;11.80;;;5.70;99.90;;;;;;5079899;28;20037;-74
2024/03/17 01:20:39;;;;;;;22.67;13.50;;;5.60;99.90;;;;;;5053601;28;20024;-74
2024/03/17 01:23:05;;;;;;;24.88;13.32;;;5.60;99.90;;;;;;5069731;28;20057;-74
2024/03/17 01:25:38;;;;;;;23.27;13.98;;;5.50;99.90;;;;;;5078582;28;20028;-74
2024/03/17 01:28:04;;;;;;;25.45;13.77;;;5.50;99.90;;;;;;5073923;28;20201;-75
2024/03/17 01:30:34;;;;;;;22.10;12.82;;;5.50;99.90;;;;;;5072887;28;20519;-74
2024/03/17 01:33:03;;;;;;;25.38;13.57;;;5.40;99.90;;;;;;5060022;28;20029;-75
2024/03/17 01:35:28;;;;;;;24.80;13.18;;;5.40;99.90;;;;;;5027104;28;20123;-74
2024/03/17 01:37:54;;;;;;;22.60;13.30;;;5.40;99.90;;;;;;5038794;28;20111;-74
2024/03/17 01:40:22;;;;;;;20.20;12.40;;;5.30;99.90;;;;;;5077061;28;20120;-74
2024/03/17 01:42:48;;;;;;;31.25;17.10;;;5.30;99.90;;;;;;5057132;28;20186;-74
2024/03/17 01:45:32;;;;;;;31.38;17.30;;;5.30;99.90;;;;;;5039766;28;20115;-74
2024/03/17 01:48:03;;;;;;;26.90;15.02;;;5.30;99.90;;;;;;5055115;28;20031;-74
2024/03/17 01:50:31;;;;;;;;;;;5.30;99.90;;;;;;5060638;28;20033;-74
2024/03/17 01:53:00;;;;;;;28.48;15.52;;;5.30;99.90;;;;;;5063868;28;19909;-73
2024/03/17 01:55:27;;;;;;;28.95;16.00;;;5.30;99.90;;;;;;5049433;28;20480;-73
2024/03/17 01:57:53;;;;;;;27.60;15.02;;;5.20;99.90;;;;;;5065010;28;20222;-74
2024/03/17 02:00:20;;;;;;;28.95;15.57;;;5.30;99.90;;;;;;5057960;28;20047;-75
2024/03/17 02:02:46;;;;;;;31.58;16.85;;;5.20;99.90;;;;;;5070221;28;20029;-74
2024/03/17 02:05:11;;;;;;;35.85;18.70;;;5.20;99.90;;;;;;5062142;28;20749;-75
2024/03/17 02:07:38;;;;;;;34.50;17.20;;;5.30;99.90;;;;;;5069636;28;20222;-74
2024/03/17 02:10:05;;;;;;;32.22;17.77;;;5.30;99.90;;;;;;5066623;28;20092;-73
2024/03/17 02:12:33;;;;;;;30.35;17.23;;;5.30;99.90;;;;;;5061695;28;20108;-74
2024/03/17 02:14:59;;;;;;;29.38;16.23;;;5.30;99.90;;;;;;5070559;28;20055;-74
2024/03/17 02:17:25;;;;;;;27.70;16.48;;;5.30;99.90;;;;;;5064379;28;20053;-73
2024/03/17 02:19:52;;;;;;;29.85;16.35;;;5.30;99.90;;;;;;5048990;28;20033;-74
2024/03/17 02:22:18;;;;;;;28.45;16.27;;;5.30;99.90;;;;;;5071829;28;20016;-74
2024/03/17 02:24:44;;;;;;;32.08;18.13;;;5.30;99.90;;;;;;5061050;28;20074;-74
2024/03/17 02:27:16;;;;;;;36.33;18.08;;;5.30;99.90;;;;;;5047038;28;20052;-74
2024/03/17 02:29:42;;;;;;;30.48;16.48;;;5.30;99.90;;;;;;5080585;28;20133;-74
2024/03/17 02:32:07;;;;;;;32.05;17.00;;;5.40;99.90;;;;;;5037371;28;20040;-74
2024/03/17 02:34:34;;;;;;;34.47;17.95;;;5.30;99.90;;;;;;5077955;28;20328;-74
2024/03/17 02:37:02;;;;;;;33.55;17.15;;;5.30;99.90;;;;;;5079652;28;20025;-74
2024/03/17 02:39:34;;;;;;;34.63;18.42;;;5.30;99.90;;;;;;5059642;28;20564;-74
2024/03/17 02:42:10;;;;;;;33.33;18.05;;;5.30;99.90;;;;;;5090280;28;20073;-74
2024/03/17 02:44:38;;;;;;;37.60;20.17;;;5.30;99.90;;;;;;5078527;28;20036;-74
2024/03/17 02:47:08;;;;;;;33.90;18.38;;;5.40;99.90;;;;;;5082261;28;20051;-74
2024/03/17 02:49:39;;;;;;;37.85;19.25;;;5.40;99.90;;;;;;5064631;28;20060;-74
2024/03/17 02:52:09;;;;;;;36.72;20.60;;;5.40;99.90;;;;;;5060721;28;20024;-74
2024/03/17 02:54:36;;;;;;;;;;;5.50;99.90;;;;;;5045691;28;20039;-74
2024/03/17 02:57:04;;;;;;;33.20;18.02;;;5.50;99.90;;;;;;5065208;28;19947;-74
2024/03/17 02:59:31;;;;;;;30.98;17.38;;;5.50;99.90;;;;;;5061663;28;20101;-74
2024/03/17 03:01:57;;;;;;;39.40;20.33;;;5.60;99.90;;;;;;5055615;28;20016;-75
2024/03/17 03:04:22;;;;;;;31.05;18.20;;;5.60;99.90;;;;;;5076698;28;20137;-74
2024/03/17 03:06:48;;;;;;;30.30;17.38;;;5.60;99.90;;;;;;5055159;28;20379;-74
2024/03/17 03:09:20;;;;;;;31.58;18.45;;;5.50;99.90;;;;;;5065000;28;20395;-74
2024/03/17 03:11:47;;;;;;;31.58;18.65;;;5.50;99.90;;;;;;5082698;28;20110;-74
2024/03/17 03:14:13;;;;;;;29.25;17.60;;;5.50;99.90;;;;;;5071119;28;20492;-75
2024/03/17 03:16:39;;;;;;;30.02;17.05;;;5.40;99.90;;;;;;5065951;28;20130;-75
2024/03/17 03:19:05;;;;;;;33.40;17.33;;;5.30;99.90;;;;;;5080474;28;20043;-75
2024/03/17 03:21:31;;;;;;;27.88;17.38;;;5.30;99.90;;;;;;5085978;28;20107;-75
2024/03/17 03:23:57;;;;;;;33.92;18.70;;;5.20;99.90;;;;;;5065123;28;20035;-75
2024/03/17 03:26:23;;;;;;;28.60;17.17;;;5.20;99.90;;;;;;5081050;28;20024;-75
2024/03/17 03:28:50;;;;;;;27.25;16.10;;;5.20;99.90;;;;;;5063833;28;20048;-75
2024/03/17 03:31:16;;;;;;;32.80;18.27;;;5.10;99.90;;;;;;5067659;28;20032;-75
2024/03/17 03:33:44;;;;;;;28.67;16.15;;;5.10;99.90;;;;;;5080459;28;20429;-74
2024/03/17 03:36:12;;;;;;;28.35;16.48;;;5.00;99.90;;;;;;5083700;28;20024;-75
2024/03/17 03:38:38;;;;;;;28.00;16.17;;;4.90;99.90;;;;;;5064584;28;20115;-75
2024/03/17 03:41:14;;;;;;;28.58;16.90;;;4.90;99.90;;;;;;5078612;28;20812;-75
2024/03/17 03:43:40;;;;;;;33.47;17.42;;;4.80;99.90;;;;;;5059425;28;20095;-76
2024/03/17 03:46:08;;;;;;;35.97;18.70;;;4.80;99.90;;;;;;5088525;28;20024;-76
2024/03/17 03:48:37;;;;;;;29.65;17.83;;;4.80;99.90;;;;;;5083296;28;20491;-75
2024/03/17 03:51:07;;;;;;;30.65;17.65;;;4.80;99.90;;;;;;5094545;28;20025;-74
2024/03/17 03:53:34;;;;;;;30.05;17.63;;;4.80;99.90;;;;;;5088523;28;20038;-75
2024/03/17 03:56:05;;;;;;;35.05;18.85;;;4.80;99.90;;;;;;5067660;28;20043;-74
2024/03/17 03:58:37;;;;;;;29.02;17.52;;;4.80;99.90;;;;;;5062610;28;20021;-74
2024/03/17 04:01:08;;;;;;;28.08;17.17;;;4.80;99.90;;;;;;5081746;28;20073;-74
2024/03/17 04:03:35;;;;;;;32.15;17.17;;;4.70;99.90;;;;;;5074295;28;20569;-74
2024/03/17 04:06:10;;;;;;;30.83;17.75;;;4.70;99.90;;;;;;5042304;28;20451;-73
2024/03/17 04:08:37;;;;;;;34.90;19.23;;;4.60;99.90;;;;;;5077852;28;20031;-74
2024/03/17 04:11:04;;;;;;;34.10;19.25;;;4.70;99.90;;;;;;5057978;28;20025;-74
2024/03/17 04:13:30;;;;;;;38.00;21.00;;;4.60;99.90;;;;;;5079579;28;20012;-74
2024/03/17 04:15:57;;;;;;;31.80;19.00;;;4.70;99.90;;;;;;5076221;28;20032;-75
2024/03/17 04:18:26;;;;;;;33.92;19.13;;;4.70;99.90;;;;;;5082565;28;20484;-75
2024/03/17 04:20:55;;;;;;;34.77;19.63;;;4.70;99.90;;;;;;5080749;28;20612;-76
2024/03/17 04:23:22;;;;;;;34.08;19.52;;;4.70;99.90;;;;;;5083601;28;20040;-75
2024/03/17 04:25:50;;;;;;;31.35;18.83;;;4.70;99.90;;;;;;5080412;28;20118;-74
2024/03/17 04:28:17;;;;;;;38.05;20.48;;;4.70;99.90;;;;;;5083181;28;20047;-74
2024/03/17 04:30:42;;;;;;;38.28;22.30;;;4.70;99.90;;;;;;5085867;28;20031;-74
2024/03/17 04:33:13;;;;;;;40.28;21.55;;;4.70;99.90;;;;;;5071306;28;20029;-75
2024/03/17 04:35:41;;;;;;;33.97;20.40;;;4.80;99.90;;;;;;5074550;28;20463;-75
2024/03/17 04:38:07;;;;;;;33.15;18.90;;;4.80;99.90;;;;;;5094952;28;20027;-75
2024/03/17 04:40:41;;;;;;;33.03;19.45;;;4.80;99.90;;;;;;5090101;28;20036;-74
2024/03/17 04:43:07;;;;;;;39.58;22.02;;;4.80;99.90;;;;;;5080579;28;20017;-75
2024/03/17 04:45:34;;;;;;;40.00;21.00;;;4.70;99.90;;;;;;5060728;28;20400;-75
2024/03/17 04:48:00;;;;;;;42.72;20.60;;;4.70;99.90;;;;;;5091873;28;20032;-74
2024/03/17 04:50:31;;;;;;;50.28;24.10;;;4.60;99.90;;;;;;5091351;28;20039;-74
2024/03/17 04:53:00;;;;;;;59.53;25.70;;;4.60;99.90;;;;;;5092787;28;20035;-74
2024/03/17 04:55:26;;;;;;;60.78;27.73;;;4.60;99.90;;;;;;5095372;28;20020;-74
2024/03/17 04:57:52;;;;;;;56.30;26.30;;;4.50;99.90;;;;;;5088701;28;20024;-75
2024/03/17 05:00:18;;;;;;;52.55;25.25;;;4.60;99.90;;;;;;5081171;28;20032;-74
2024/03/17 05:02:46;;;;;;;43.10;23.60;;;4.50;99.90;;;;;;5083084;28;20130;-73
2024/03/17 05:05:12;;;;;;;43.22;23.85;;;4.50;99.90;;;;;;5089155;28;20058;-73
2024/03/17 05:07:37;;;;;;;39.85;21.55;;;4.40;99.90;;;;;;5093368;28;20519;-75
2024/03/17 05:10:04;;;;;;;39.70;22.83;;;4.40;99.90;;;;;;5073653;28;20035;-74
2024/03/17 05:12:31;;;;;;;37.92;22.38;;;4.30;99.90;;;;;;5080966;28;20020;-74
2024/03/17 05:14:56;;;;;;;41.08;23.17;;;4.30;99.90;;;;;;5087965;28;20166;-75
2024/03/17 05:17:23;;;;;;;39.70;22.23;;;4.20;99.90;;;;;;5060521;28;20121;-74
2024/03/17 05:19:48;;;;;;;42.33;22.45;;;4.10;99.90;;;;;;5077266;28;20103;-74
2024/03/17 05:22:14;;;;;;;43.35;22.13;;;4.00;99.90;;;;;;5092407;28;20593;-74
2024/03/17 05:24:40;;;;;;;38.40;20.75;;;4.00;99.90;;;;;;5086005;28;20028;-75
2024/03/17 05:27:05;;;;;;;38.63;21.77;;;4.00;99.90;;;;;;5108409;28;20589;-74
2024/03/17 05:29:31;;;;;;;42.03;22.95;;;3.90;99.90;;;;;;5082117;28;20025;-75
2024/03/17 05:31:57;;;;;;;51.97;25.48;;;4.00;99.90;;;;;;5094539;28;20016;-75
2024/03/17 05:34:26;;;;;;;55.40;27.40;;;4.00;99.90;;;;;;5076923;28;20028;-75
2024/03/17 05:36:51;;;;;;;54.22;27.25;;;4.10;99.90;;;;;;5110610;28;20019;-75
2024/03/17 05:39:17;;;;;;;55.95;27.92;;;4.10;99.90;;;;;;5106027;28;20092;-74
2024/03/17 05:41:43;;;;;;;55.35;28.27;;;4.20;99.90;;;;;;5092641;28;20024;-75
2024/03/17 05:44:09;;;;;;;54.03;27.33;;;4.20;99.90;;;;;;5084262;28;20031;-75
2024/03/17 05:46:35;;;;;;;57.40;29.38;;;4.20;99.90;;;;;;5099204;28;20035;-75
2024/03/17 05:49:03;;;;;;;50.83;27.58;;;4.30;99.90;;;;;;5073933;28;20510;-76
2024/03/17 05:51:29;;;;;;;49.30;26.15;;;4.40;99.90;;;;;;5057650;28;20060;-75
2024/03/17 05:53:55;;;;;;;47.30;26.27;;;4.40;99.90;;;;;;5073876;28;20506;-72
2024/03/17 05:56:22;;;;;;;50.65;25.98;;;4.40;99.90;;;;;;5091060;28;20088;-75
2024/03/17 05:58:49;;;;;;;47.90;25.83;;;4.40;99.90;;;;;;5080712;28;20028;-74
2024/03/17 06:01:15;;;;;;;46.38;25.13;;;4.50;99.90;;;;;;5090927;28;20367;-74
2024/03/17 06:03:41;;;;;;;48.13;25.35;;;4.50;99.90;;;;;;5074451;28;20032;-73
2024/03/17 06:06:12;;;;;;;42.67;23.40;;;4.40;99.90;;;;;;5070558;28;20013;-73
2024/03/17 06:08:38;;;;;;;49.58;25.10;;;4.40;99.90;;;;;;5081114;28;20044;-73
2024/03/17 06:11:04;;;;;;;40.45;22.05;;;4.50;99.90;;;;;;5072891;28;20115;-73
2024/03/17 06:13:30;;;;;;;37.90;21.83;;;4.50;99.90;;;;;;5074233;28;20123;-73
2024/03/17 06:16:02;;;;;;;34.28;19.35;;;4.50;99.90;;;;;;5079840;28;20027;-74
2024/03/17 06:18:29;;;;;;;37.40;20.15;;;4.50;99.90;;;;;;5084395;28;20044;-73
2024/03/17 06:20:58;;;;;;;30.50;18.00;;;4.60;99.90;;;;;;5064250;28;20028;-73
2024/03/17 06:23:24;;;;;;;34.25;18.85;;;4.50;99.90;;;;;;5082944;28;20031;-73
2024/03/17 06:25:54;;;;;;;32.67;18.30;;;4.50;99.90;;;;;;5073365;28;20027;-73
2024/03/17 06:28:19;;;;;;;35.15;19.92;;;4.50;99.90;;;;;;5079574;28;20051;-73
2024/03/17 06:30:59;;;;;;;38.58;21.15;;;4.60;99.90;;;;;;5085885;28;20040;-74
2024/03/17 06:33:25;;;;;;;43.87;24.43;;;4.60;99.90;;;;;;5089725;28;20027;-73
2024/03/17 06:35:50;;;;;;;49.20;26.02;;;4.70;99.90;;;;;;5066499;28;20649;-73
2024/03/17 06:38:16;;;;;;;48.20;25.98;;;4.70;99.90;;;;;;5078651;28;20024;-74
2024/03/17 06:40:51;;;;;;;54.17;28.25;;;4.90;99.90;;;;;;5097187;28;20038;-74
2024/03/17 06:43:17;;;;;;;52.53;27.88;;;5.00;99.90;;;;;;5102252;28;20042;-74
2024/03/17 06:45:44;;;;;;;45.45;25.88;;;5.10;99.90;;;;;;5080760;28;20028;-75
2024/03/17 06:48:10;;;;;;;45.85;26.98;;;5.10;99.90;;;;;;5068952;28;20028;-76
2024/03/17 06:50:40;;;;;;;42.13;23.98;;;5.20;99.90;;;;;;5097415;28;20023;-75
2024/03/17 06:53:07;;;;;;;42.67;24.98;;;5.30;99.90;;;;;;5090545;28;20031;-74
2024/03/17 06:55:34;;;;;;;40.42;24.52;;;5.40;99.90;;;;;;5073698;28;20036;-75
2024/03/17 06:58:00;;;;;;;40.50;24.73;;;5.50;99.90;;;;;;5060074;28;20020;-72
2024/03/17 07:00:25;;;;;;;41.10;23.65;;;5.70;99.90;;;;;;5080333;28;20476;-75
2024/03/17 07:02:51;;;;;;;39.28;24.65;;;5.80;99.90;;;;;;5087876;28;20051;-76
2024/03/17 07:05:17;;;;;;;34.30;21.58;;;6.00;99.90;;;;;;5091100;28;20367;-75
2024/03/17 07:07:45;;;;;;;23.88;17.13;;;6.20;99.90;;;;;;5107055;28;20052;-75
2024/03/17 07:10:12;;;;;;;22.75;16.08;;;6.30;99.90;;;;;;5110722;28;20028;-76
2024/03/17 07:12:42;;;;;;;20.58;14.23;;;6.60;99.90;;;;;;5103974;28;20024;-76
2024/03/17 07:15:11;;;;;;;;;;;6.80;99.90;;;;;;5088925;28;20103;-75
2024/03/17 07:17:36;;;;;;;17.45;13.05;;;7.00;99.90;;;;;;5091248;28;19904;-76
2024/03/17 07:20:03;;;;;;;19.00;14.70;;;7.00;99.90;;;;;;5081959;28;20026;-75
2024/03/17 07:22:29;;;;;;;17.85;13.48;;;7.00;99.90;;;;;;5081535;28;20127;-76
2024/03/17 07:25:00;;;;;;;19.33;14.27;;;7.10;99.90;;;;;;5081827;28;20035;-76
2024/03/17 07:27:27;;;;;;;19.42;14.32;;;7.10;99.90;;;;;;5068385;28;20119;-75
2024/03/17 07:29:53;;;;;;;22.92;15.13;;;7.20;99.90;;;;;;5078239;28;20056;-75
2024/03/17 07:32:25;;;;;;;17.55;13.80;;;7.20;99.90;;;;;;5087524;28;20027;-76
2024/03/17 07:34:51;;;;;;;18.55;14.52;;;7.30;99.90;;;;;;5083599;28;20379;-75
2024/03/17 07:37:17;;;;;;;19.27;14.05;;;7.40;99.90;;;;;;5085786;28;20019;-74
2024/03/17 07:39:43;;;;;;;19.08;13.98;;;7.40;99.90;;;;;;5085537;28;20028;-76
2024/03/17 07:42:08;;;;;;;18.77;14.90;;;7.50;99.90;;;;;;5078990;28;20039;-76
2024/03/17 07:44:34;;;;;;;18.88;13.98;;;7.60;99.90;;;;;;5068946;28;20036;-74
2024/03/17 07:47:10;;;;;;;19.95;14.15;;;7.70;99.90;;;;;;5077843;28;20034;-75
2024/03/17 07:49:36;;;;;;;18.73;13.68;;;7.80;99.90;;;;;;5090237;28;20056;-74
2024/03/17 07:52:02;;;;;;;17.52;12.90;;;8.00;99.90;;;;;;5092621;28;20054;-75
2024/03/17 07:54:28;;;;;;;16.30;12.27;;;8.30;99.90;;;;;;5091995;28;20020;-76
2024/03/17 07:56:54;;;;;;;14.90;11.32;;;8.50;99.90;;;;;;5078466;28;20051;-76
2024/03/17 07:59:20;;;;;;;14.75;11.18;;;8.70;99.90;;;;;;5075367;28;20048;-75
2024/03/17 08:01:47;;;;;;;12.57;10.07;;;8.90;99.90;;;;;;5048975;28;20072;-76
2024/03/17 08:04:14;;;;;;;12.73;10.40;;;9.00;99.90;;;;;;5089363;28;20527;-74
2024/03/17 08:06:41;;;;;;;16.63;10.82;;;9.20;99.90;;;;;;5062040;28;20036;-75
2024/03/17 08:09:10;;;;;;;12.73;9.55;;;9.40;99.90;;;;;;5048435;28;20568;-75
2024/03/17 08:11:37;;;;;;;14.95;9.60;;;9.50;99.90;;;;;;5082968;28;20074;-74
2024/03/17 08:14:03;;;;;;;12.63;9.82;;;9.80;99.90;;;;;;5086100;28;20023;-73
2024/03/17 08:16:30;;;;;;;11.73;9.82;;;9.90;99.90;;;;;;5068972;28;20024;-73
2024/03/17 08:18:58;;;;;;;10.85;8.98;;;10.10;99.90;;;;;;5092723;28;20074;-73
2024/03/17 08:21:28;;;;;;;11.48;8.15;;;10.30;99.90;;;;;;5077927;28;20402;-74
2024/03/17 08:23:53;;;;;;;11.73;8.82;;;10.50;99.90;;;;;;5082308;28;20078;-74
2024/03/17 08:26:21;;;;;;;10.60;8.63;;;10.60;99.90;;;;;;5081055;28;20024;-74
2024/03/17 08:28:46;;;;;;;11.73;7.80;;;10.60;99.90;;;;;;5069101;28;20044;-75
2024/03/17 08:31:15;;;;;;;11.52;8.45;;;10.70;99.90;;;;;;5092107;28;20032;-74
2024/03/17 08:33:41;;;;;;;12.48;8.55;;;10.70;99.90;;;;;;5086865;28;20099;-75
2024/03/17 08:36:08;;;;;;;11.45;7.70;;;10.90;99.90;;;;;;5061335;28;20215;-75
2024/03/17 08:38:35;;;;;;;12.00;7.90;;;10.90;99.90;;;;;;5089099;28;20028;-73
2024/03/17 08:41:10;;;;;;;12.68;8.38;;;11.00;99.90;;;;;;5083297;28;20061;-75
2024/03/17 08:43:36;;;;;;;10.48;7.95;;;11.10;99.90;;;;;;5089075;28;20468;-73
2024/03/17 08:46:07;;;;;;;12.05;8.60;;;11.30;99.90;;;;;;5080325;28;20055;-74
2024/03/17 08:48:35;;;;;;;11.68;8.15;;;11.30;99.90;;;;;;5091541;28;20032;-76
2024/03/17 08:51:02;;;;;;;10.55;7.50;;;11.40;99.90;;;;;;5059336;28;20032;-75
2024/03/17 08:53:28;;;;;;;9.10;7.28;;;11.50;99.90;;;;;;5081450;28;20032;-73
2024/03/17 08:55:58;;;;;;;12.05;8.18;;;11.70;99.90;;;;;;5080020;28;20083;-73
2024/03/17 08:58:25;;;;;;;;;;;11.90;99.90;;;;;;5081485;28;20471;-74
2024/03/17 09:00:51;;;;;;;8.73;6.55;;;12.00;99.90;;;;;;5088116;28;19908;-74
2024/03/17 09:03:17;;;;;;;7.72;6.18;;;12.10;99.90;;;;;;5069950;28;20525;-73
2024/03/17 09:05:45;;;;;;;9.55;6.30;;;12.10;99.90;;;;;;5088977;28;20067;-74
2024/03/17 09:08:22;;;;;;;7.20;5.57;;;12.20;99.90;;;;;;5078842;28;20039;-75
2024/03/17 09:10:50;;;;;;;9.80;5.38;;;12.30;99.90;;;;;;5043016;28;20127;-76
2024/03/17 09:13:17;;;;;;;8.30;5.10;;;12.40;99.90;;;;;;5083179;28;20043;-76
2024/03/17 09:15:57;;;;;;;7.20;5.07;;;12.50;99.90;;;;;;5080457;28;20025;-78
2024/03/17 09:18:23;;;;;;;9.13;5.18;;;12.60;99.90;;;;;;5079563;28;20037;-76
2024/03/17 09:21:00;;;;;;;5.70;4.93;;;12.70;99.90;;;;;;5065314;28;20402;-76
2024/03/17 09:23:29;;;;;;;7.47;4.63;;;12.70;99.90;;;;;;5091998;28;20016;-75
2024/03/17 09:26:04;;;;;;;6.15;5.13;;;12.80;99.90;;;;;;5081520;28;20444;-80
2024/03/17 09:28:30;;;;;;;6.15;5.32;;;13.00;99.90;;;;;;5072695;28;20032;-77
2024/03/17 09:30:57;;;;;;;8.98;5.45;;;13.10;99.90;;;;;;5070986;28;20143;-77
2024/03/17 09:33:24;;;;;;;5.65;5.03;;;13.10;99.90;;;;;;5054984;28;20127;-77
2024/03/17 09:36:05;;;;;;;8.57;4.40;;;13.10;99.90;;;;;;5052555;28;20065;-74
2024/03/17 09:38:34;;;;;;;6.68;4.90;;;13.20;99.90;;;;;;5072846;28;20052;-76
2024/03/17 09:41:01;;;;;;;5.53;4.15;;;13.30;99.90;;;;;;5053020;28;20504;-74
2024/03/17 09:43:28;;;;;;;6.90;4.90;;;13.30;99.90;;;;;;5071724;28;20033;-75
2024/03/17 09:45:57;;;;;;;4.80;4.05;;;13.40;99.90;;;;;;5071117;28;20052;-74
2024/03/17 09:48:24;;;;;;;5.22;4.05;;;13.60;99.90;;;;;;5072679;28;20028;-75
2024/03/17 09:50:52;;;;;;;6.47;4.50;;;13.70;99.90;;;;;;5070950;28;20055;-74
2024/03/17 09:53:29;;;;;;;4.75;3.63;;;13.80;99.90;;;;;;5072611;28;20603;-74
2024/03/17 09:55:59;;;;;;;5.03;3.63;;;13.80;99.90;;;;;;5062410;28;20027;-74
2024/03/17 09:58:27;;;;;;;4.53;3.53;;;13.80;99.90;;;;;;5070267;28;20025;-74
2024/03/17 10:00:52;;;;;;;6.65;3.30;;;13.90;99.90;;;;;;5071027;28;20043;-74
2024/03/17 10:03:52;;;;;;;5.38;3.13;;;13.90;99.90;;;;;;5068362;28;20041;-75
2024/03/17 10:06:24;;;;;;;3.92;3.08;;;14.00;99.90;;;;;;5018767;28;20028;-75
2024/03/17 10:08:52;;;;;;;4.82;2.95;;;14.10;99.90;;;;;;5064431;28;20047;-74
2024/03/17 10:11:23;;;;;;;4.55;3.08;;;14.10;99.90;;;;;;5080836;28;20023;-74
2024/03/17 10:14:11;;;;;;;4.72;2.95;;;14.20;99.90;;;;;;5063036;28;20032;-73
2024/03/17 10:16:38;;;;;;;4.97;3.08;;;14.20;99.90;;;;;;5070317;28;20021;-75
2024/03/17 10:19:14;;;;;;;5.05;3.03;;;14.20;99.90;;;;;;5077642;28;20055;-74
2024/03/17 10:21:41;;;;;;;5.47;3.47;;;14.40;99.90;;;;;;5079165;28;20022;-74
2024/03/17 10:24:23;;;;;;;4.15;2.78;;;14.60;99.90;;;;;;5067433;28;20480;-74
2024/03/17 10:26:52;;;;;;;3.15;2.55;;;14.70;99.90;;;;;;5049723;28;20093;-74
2024/03/17 10:29:22;;;;;;;7.37;3.30;;;14.80;99.90;;;;;;5076299;28;20037;-74
2024/03/17 10:31:48;;;;;;;5.25;2.83;;;14.90;99.90;;;;;;5089859;28;20050;-73
2024/03/17 10:34:18;;;;;;;3.45;3.08;;;14.90;99.90;;;;;;5075879;28;20037;-73
2024/03/17 10:36:48;;;;;;;3.53;3.17;;;15.00;99.90;;;;;;5071680;28;20025;-73
2024/03/17 10:39:33;;;;;;;9.18;3.03;;;15.00;99.90;;;;;;5083784;28;20043;-72
2024/03/17 10:42:04;;;;;;;4.55;3.13;;;15.10;99.90;;;;;;5056212;28;20031;-73
2024/03/17 10:44:40;;;;;;;6.05;3.67;;;15.30;99.90;;;;;;5076619;28;20110;-74
2024/03/17 10:47:25;;;;;;;5.85;3.90;;;15.50;99.90;;;;;;5085134;28;20028;-73
2024/03/17 10:49:54;;;;;;;7.90;4.40;;;15.60;99.90;;;;;;5071976;28;20016;-73
2024/03/17 10:52:21;;;;;;;3.83;3.42;;;15.60;99.90;;;;;;5074084;28;20024;-73
2024/03/17 10:54:54;;;;;;;4.93;4.20;;;15.60;99.90;;;;;;5082015;28;20101;-74
2024/03/17 10:57:35;;;;;;;5.53;4.47;;;15.70;99.90;;;;;;5064630;28;20074;-73
2024/03/17 11:00:07;;;;;;;4.50;3.83;;;15.70;99.90;;;;;;5055709;28;20115;-74
2024/03/17 11:02:35;;;;;;;6.78;3.83;;;15.70;99.90;;;;;;5061113;28;20369;-73
2024/03/17 11:05:21;;;;;;;5.45;3.70;;;15.80;99.90;;;;;;5080033;28;20039;-73
2024/03/17 11:07:49;;;;;;;5.15;3.85;;;15.90;99.90;;;;;;5080380;28;20166;-73
2024/03/17 11:10:23;;;;;;;4.97;3.75;;;15.90;99.90;;;;;;5085435;28;20506;-73
2024/03/17 11:12:50;;;;;;;6.82;3.60;;;16.00;99.90;;;;;;5071284;28;20115;-73
2024/03/17 11:15:42;;;;;;;5.05;3.33;;;16.00;99.90;;;;;;5080656;28;20066;-73
2024/03/17 11:18:08;;;;;;;4.13;3.25;;;15.90;99.90;;;;;;5015520;28;20049;-73
2024/03/17 11:20:43;;;;;;;4.15;3.75;;;15.90;99.90;;;;;;5025868;28;20691;-73
2024/03/17 11:23:12;;;;;;;3.58;3.25;;;16.10;99.90;;;;;;5017026;28;20138;-73
2024/03/17 11:25:40;;;;;;;3.78;3.08;;;16.20;99.90;;;;;;5016966;28;20140;-73
2024/03/17 11:28:11;;;;;;;4.57;3.10;;;16.30;99.90;;;;;;5034374;28;20100;-73
2024/03/17 11:30:57;;;;;;;4.65;3.53;;;16.30;99.90;;;;;;5019280;28;20122;-73
2024/03/17 11:33:37;;;;;;;5.75;3.53;;;16.50;99.90;;;;;;5019113;28;20026;-73
2024/03/17 11:36:40;;;;;;;3.78;3.20;;;16.80;98.70;;;;;;5032558;28;20030;-73
2024/03/17 11:39:23;;;;;;;2.35;2.15;;;17.00;97.90;;;;;;5021462;28;20726;-73
2024/03/17 11:41:50;;;;;;;4.28;3.20;;;17.10;98.70;;;;;;5016755;28;20077;-74
2024/03/17 11:44:18;;;;;;;4.80;3.20;;;17.20;97.30;;;;;;5027265;28;20068;-74
2024/03/17 11:46:57;;;;;;;6.78;3.05;;;17.20;96.90;;;;;;5010856;28;20124;-73
2024/03/17 11:49:44;;;;;;;4.88;2.83;;;17.10;97.20;;;;;;5027342;28;20045;-73
2024/03/17 11:52:15;;;;;;;3.38;2.70;;;17.10;97.40;;;;;;4984628;28;20115;-74
2024/03/17 11:54:45;;;;;;;4.90;3.22;;;17.00;97.70;;;;;;4994101;28;20414;-73
2024/03/17 11:57:30;;;;;;;4.57;2.85;;;16.90;97.40;;;;;;4997306;28;20122;-73
2024/03/17 11:59:56;;;;;;;4.30;2.30;;;16.80;97.90;;;;;;5005227;28;20028;-74
2024/03/17 12:02:27;;;;;;;4.45;2.50;;;16.80;97.70;;;;;;5007654;28;20041;-74
2024/03/17 12:04:56;;;;;;;3.33;2.50;;;16.90;97.50;;;;;;5007016;28;20026;-73
2024/03/17 12:07:23;;;;;;;5.90;2.88;;;16.90;97.50;;;;;;5007431;28;20494;-74
2024/03/17 12:09:53;;;;;;;6.03;3.58;;;16.80;97.70;;;;;;5006540;28;20045;-73
2024/03/17 12:12:34;;;;;;;3.50;3.10;;;16.60;98.60;;;;;;5007504;28;20022;-73
2024/03/17 12:15:02;;;;;;;6.35;3.58;;;16.40;99.00;;;;;;4995919;28;20486;-73
2024/03/17 12:17:28;;;;;;;4.18;3.55;;;16.20;99.60;;;;;;5007257;28;20548;-73
2024/03/17 12:19:58;;;;;;;4.15;2.78;;;16.10;99.90;;;;;;4989444;28;20026;-73
2024/03/17 12:22:27;;;;;;;4.22;3.55;;;16.10;99.90;;;;;;4991941;28;20041;-73
2024/03/17 12:24:54;;;;;;;7.57;3.47;;;16.10;99.90;;;;;;5006145;28;20486;-73
2024/03/17 12:27:24;;;;;;;5.68;4.07;;;16.00;99.90;;;;;;5007321;28;20056;-76
2024/03/17 12:29:54;;;;;;;4.60;3.60;;;15.90;99.40;;;;;;5043478;28;20416;-73
2024/03/17 12:32:21;;;;;;;;;;;15.90;99.50;;;;;;5079802;28;20025;-72
2024/03/17 12:35:12;;;;;;;4.25;3.40;;;16.00;99.70;;;;;;5061553;28;19926;-72
2024/03/17 12:37:37;;;;;;;6.07;3.67;;;16.10;99.50;;;;;;5080195;28;20037;-72
2024/03/17 12:40:06;;;;;;;4.70;3.10;;;16.30;99.40;;;;;;5082511;28;20542;-72
2024/03/17 12:42:32;;;;;;;6.38;3.38;;;16.50;98.90;;;;;;5041997;28;20119;-73
2024/03/17 12:45:06;;;;;;;4.13;3.08;;;16.70;98.80;;;;;;5070331;28;20095;-72
2024/03/17 12:47:32;;;;;;;5.15;3.42;;;16.70;98.30;;;;;;5080899;28;20078;-72
2024/03/17 12:50:17;;;;;;;5.40;3.53;;;16.70;98.50;;;;;;5075777;28;20036;-73